Accueil
METAR-TAF:

METAR-TAF

Aéroports :

Wilkes County Airport

North Wilkesboro, Caroline du Nord, États-Unis

latitude: 36-13N, longitude: 081-05W, altitude: 396 m

Observation

Le bulletin a été fait il y a 7 minutes, à 15:55 UTC
Vent 4 kt de sud/sud-est
Température 27°C
Humidité 79%
Pression 1026 hPa
Visibilité: 16.1 km
Nuages fragmentés à une hauteur de 1500 ft
Nuages fragmentés à une hauteur de 9500 ft
Nuages fragmentés à une hauteur de 12000 ft

METAR: KUKF 161555Z AUTO 15004KT 10SM BKN015 BKN095 BKN120 27/23 A3029 RMK AO2

Heure: 12:02 (16:02 UTC)


TAF: absent

Observations et prévisions météorologiques de plus de 4000 aéroports (messages METAR et TAF).

Les stations disponibles sont représentées par des disques jaunes et rouges sur la carte.

Passer la souris dessus pour voir le nom de la station.

Cliquer dessus pour voir les observations et prévisions météorologiques.

Pour changer de carte: cliquez sur les boutons verts avec une croix noire pour zoomer, sur le bouton vert avec un tiret pour effectuer un zoom arrière, ou sur les flèches vertes pour les cartes adjacentes.


METAR-TAF: